< < Back
Terminal Aerodrome Forecast


Current Version              Previous Versions:   1  2  3  4  5  6  7  8  9  

Terminal Aerodrome Forecast

996
FTUS44 KMOB 261125
TAFMOB
TAF
KMOB 261125Z 2612/2712 00000KT P6SM SCT100 OVC250
     FM261900 18011KT P6SM SCT050 BKN100 OVC250=

Latest METAR

970
SAUS80 KWBC 261800
MTRMOB
METAR KMOB 261756Z 15006KT 10SM FEW035 BKN250 30/21 A3012 RMK AO2 SLP195
T03000206 10300 20206 58012


USA.gov is the U.S. government's official web portal to all federal, state and local government web resources and services.